This is the latest recevied weather packets stored in our database for station/object N4JTC. If no packets are shown the sender has not sent any weather packets the latest 10 day(s).
| Time | Temp. | Humidity | Pressure | Rain* | Wind** | Luminosity | Snow |
|---|---|---|---|---|---|---|---|
| 1778128803 | 23.89° C | 93% | 1015 hPa | 0 mm | - | 0 W/m² | - |
| 1778128503 | 23.89° C | 93% | 1015.1 hPa | 0 mm | - | 0 W/m² | - |
| 1778128202 | 23.89° C | 93% | 1015.1 hPa | 0 mm | - | 0 W/m² | - |
| 1778127903 | 23.89° C | 93% | 1015.3 hPa | 0 mm | - | 0 W/m² | - |
| 1778127603 | 23.89° C | 93% | 1015.3 hPa | 0 mm | - | 0 W/m² | - |
| 1778127303 | 23.89° C | 93% | 1015.3 hPa | 0 mm | - | 0 W/m² | - |
| 1778127003 | 23.89° C | 93% | 1015.3 hPa | 0 mm | - | 0 W/m² | - |
| 1778126403 | 23.89° C | 93% | 1015.2 hPa | 0 mm | - | 0 W/m² | - |
| 1778126103 | 23.89° C | 93% | 1015.5 hPa | 0 mm | - | 0 W/m² | - |
| 1778106303 | 27.78° C | 74% | 1015.2 hPa | 0 mm | - | 272 W/m² | - |
| 1778104803 | 27.78° C | 72% | 1015.4 hPa | 0 mm | - | 376 W/m² | - |
| 1778101803 | 28.33° C | 68% | 1015.7 hPa | 0 mm | - | 528 W/m² | - |
| 1778094903 | 28.33° C | 73% | 1017.5 hPa | 0 mm | - | 829 W/m² | - |
| 1778093703 | 28.33° C | 73% | 1017.6 hPa | 0 mm | - | 858 W/m² | - |
| 1778092503 | 28.33° C | 69% | 1017.6 hPa | 0 mm | - | 877 W/m² | - |
| 1778092203 | 28.33° C | 71% | 1017.5 hPa | 0 mm | - | 878 W/m² | - |
| 1778090703 | 28.33° C | 73% | 1017.9 hPa | 0 mm | - | 836 W/m² | - |
| 1778088303 | 27.78° C | 74% | 1018 hPa | 0 mm | - | 922 W/m² | - |
| 1778087703 | 27.22° C | 75% | 1018.3 hPa | 0 mm | - | 955 W/m² | - |
| 1778085303 | 27.22° C | 76% | 1017.8 hPa | 0 mm | - | 373 W/m² | - |
| 1778084703 | 26.67° C | 78% | 1017.9 hPa | 0 mm | - | 640 W/m² | - |
| 1778084403 | 26.67° C | 78% | 1017.8 hPa | 0 mm | - | 311 W/m² | - |
| 1778082603 | 26.67° C | 79% | 1017.7 hPa | 0 mm | - | 996 W/m² | - |
| 1778075703 | 25.56° C | 82% | 1016.8 hPa | 0 mm | - | 202 W/m² | - |
| 1778074502 | 24.44° C | 86% | 1016.8 hPa | 0 mm | - | 341 W/m² | - |
* Rain latest hour (hover to see other rain measurements)
** Current wind speed in m/s (hover to see current wind gust speed)